Altenbach, France

12:44 PM CET on December 05, 2016 (GMT +0100)
Altenbach, 705 m HAUT-RHIN | | Change Station

Elev 2346 ft 47.88 °N, 7.09 °E | Updated 4 minutes ago

Light Freezing Fog
Freezing Fog
39.6 °F
Feels Like 40 °F
N
0.0
Wind Variable Wind from North
Gusts 0.0 mph

Today
High -- | Low -- °F
--% Chance of Precip.
Yesterday
High -- | Low -- °F
Precip. -- in
Pressure 30.36 in
Visibility -9999.0 miles
Clouds Overcast 200 ft
Windchill 40 °F
Dew Point 35 °F
Humidity 83%
Rainfall 0.00 in
Snow Depth Not available.
8:05 AM 4:39 PM
Waxing Crescent, 31% visible
METAR LFGA 051130Z AUTO VRB02KT 0650 R19/0900N FZFG OVC002 M02/M03 Q1028
Pressure 30.36 in
Visibility -9999.0 miles
Clouds Overcast 200 ft
Windchill 40 °F
Dew Point 35 °F
Humidity 83%
Rainfall 0.00 in
Snow Depth Not available.
8:05 AM 4:39 PM
Waxing Crescent, 31% visible
METAR LFGA 051130Z AUTO VRB02KT 0650 R19/0900N FZFG OVC002 M02/M03 Q1028

10-Day Weather Forecast

×

Almanac

Astronomy

Dec. 05, 2016 Rise Set
Actual Time
Civil Twilight
Nautical Twilight
Astronomical Twilight
Moon
Length of Visible Light
Length of Day
Tomorrow will be .
, % of the Moon is Illuminated

Today's Extremes

Country Highs Country Lows

Community

WunderPhotos

Upload Photos

1,955,777 photos uploaded!

WunderBlog® & News

Nearby

Air Quality

  Air Quality AQ Index Pollutant
Not available.

Snow Depth

Station Depth Elevation

Earthquake Activity

City Distance Mag. Time & Date
Minimum magnitude displayed is 2.5.

Coastal Water Temperatures

Place Temperature

Stations

Nearby Weather Stations

Station Location Temp. Windchill Dew Point Humidity Wind Precip. Elev Updated Type